Home   Weather   Morocco   Rabat   Past weeks
Flag for Morocco

Past Weather in Rabat, Morocco — Yesterday and Last 2 Weeks

Currently: 75 °F. Clear. (Weather station: Rabat-Sale, Morocco). See more current weather

Past Weather in Rabat — Graph

°F

Rabat Temperature Yesterday

Maximum temperature yesterday: 91 °F (at 11:30 am)
Minimum temperature yesterday: 70 °F (at 5:00 am)
Average temperature yesterday: 80 °F

High & Low Weather Summary for the Past Weeks

 TemperatureHumidityPressure
High91 °F (Jul 19, 11:30 am)100% (Jul 8, 4:00 am)30.07 "Hg (Jul 8, 4:00 am)
Low55 °F (Jul 8, 4:00 am)48% (Jul 14, 4:00 pm)29.86 "Hg (Jul 18, 4:30 am)
Average72 °F81%29.98 "Hg
* Reported Jul 5 7:00 pm — Jul 20 7:00 pm, Rabat. Weather by CustomWeather, © 2024

Note: Actual official high and low records may vary slightly from our data, if they occured in-between our weather recording intervals... More about our weather records

Rabat Weather History for the Previous 24 Hours

Scroll right to see more
 ConditionsComfort  
Time TempWeatherWind HumidityBarometerVisibility
7:00 pm
Sat, Jul 20
77 °FClear.7 mph83%29.92 "Hg4 mi
6:00 pm77 °FClear.9 mph79%29.92 "Hg4 mi
5:30 pm79 °FClear.8 mph65%29.92 "Hg4 mi
5:00 pm77 °FScattered clouds.10 mph79%29.92 "Hg4 mi
4:30 pm77 °FScattered clouds.12 mph79%29.92 "Hg4 mi
4:00 pm79 °FScattered clouds.10 mph74%29.95 "Hg4 mi
3:30 pm81 °FPassing clouds.10 mph74%29.95 "Hg4 mi
3:00 pm81 °FClear.7 mph74%29.95 "Hg4 mi
1:30 pm81 °FClear.7 mph74%29.95 "Hg4 mi
1:00 pm79 °FClear.8 mph74%29.98 "Hg4 mi
12:00 pm81 °FClear.7 mph74%29.98 "Hg4 mi
11:30 am81 °FScattered clouds.6 mph74%29.98 "Hg3 mi
11:00 am79 °FScattered clouds.6 mph79%29.98 "Hg3 mi
10:30 am79 °FScattered clouds.3 mph74%29.98 "Hg3 mi
10:00 am79 °FScattered clouds.5 mph79%29.98 "Hg3 mi
9:30 am77 °FScattered clouds.5 mph83%29.98 "Hg3 mi
8:30 am73 °FClear.No wind100%29.98 "Hg3 mi
8:00 am73 °FClear.6 mph100%29.95 "Hg3 mi
7:30 am72 °FClear.3 mph100%29.95 "Hg3 mi
7:00 am68 °FClear.No wind100%29.95 "Hg3 mi
6:30 am68 °FClear.No wind100%29.92 "Hg3 mi
6:00 am70 °FPassing clouds.No wind94%29.92 "Hg3 mi
5:30 am70 °FPassing clouds.No wind100%29.92 "Hg3 mi
5:00 am72 °FPassing clouds.3 mph100%29.92 "Hg3 mi
4:30 am70 °FPassing clouds.No wind100%29.92 "Hg3 mi
4:00 am72 °FPassing clouds.No wind100%29.92 "Hg3 mi
3:30 am73 °FPassing clouds.No wind94%29.92 "Hg3 mi
3:00 am73 °FFog.3 mph100%29.92 "Hg2 mi
2:30 am75 °FFog.5 mph94%29.95 "Hg2 mi
2:00 am75 °FPassing clouds.5 mph94%29.95 "Hg3 mi
1:30 am73 °FPassing clouds.No wind100%29.98 "Hg3 mi
1:00 am75 °FPassing clouds.No wind100%29.98 "Hg3 mi
12:30 am75 °FPassing clouds.5 mph100%29.98 "Hg3 mi
12:00 am75 °FPassing clouds.3 mph100%29.98 "Hg3 mi
11:30 pm
Fri, Jul 19
75 °FPassing clouds.3 mph100%30.01 "Hg3 mi
11:00 pm77 °FPassing clouds.3 mph94%30.01 "Hg4 mi
10:00 pm77 °FPassing clouds.No wind89%30.01 "Hg4 mi
9:30 pm77 °FPassing clouds.No wind94%29.98 "Hg4 mi
9:00 pm79 °FPassing clouds.No wind89%29.98 "Hg4 mi
8:00 pm79 °FPassing clouds.7 mph79%29.98 "Hg4 mi
Weather by CustomWeather, © 2024

See weather overview